Aviation Digital Data Service (ADDS)

Output produced by METARs form (0711 UTC 22 August 2017)
found at http://aviationweather.gov/adds/metars/
 
KPSM 220525Z 2206/2306 24005KT P6SM SKC 
     FM221500 22006KT P6SM SCT120 SCT250 
     FM221900 21009KT P6SM BKN045 BKN090 
     PROB30 2220/2302 2SM TSRA OVC025CB 
     FM230200 21009KT 5SM -SHRA OVC045